No particular awareness of the weather is required.   -   There are no Weather-warnings

Nearby METAR Reports

 

ENZV - Stavanger
Updated: 25/06/2018 07:20
Mostly cloudy
Mostly cloudy
 Wind from N
Wind: N 22 km/h
Temperature: 12°C
Dew Point: 11°C
Humidity: 94%
Barometer: 1022 hPa
Clouds: Mostly cloudy
Visibility: 10 km
2018/06/25 05:20 ENZV 250520Z 35012KT 9999 BKN006 12/11 Q1022 NOSIG
ENBR - Bergen
Updated: 25/06/2018 07:20
Mist, mostly cloudy
Mist, mostly cloudy
 Wind from varies
Wind: varies 4 km/h
Temperature: 11°C
Dew Point: 11°C
Humidity: 100%
Barometer: 1022 hPa
Summary: Mist
Clouds: Mostly cloudy
Visibility: 3 km
2018/06/25 05:20 ENBR 250520Z VRB02KT 2500 BR SCT002 BKN004 11/11 Q1022 BECMG 4000 BR RMK WIND 1200FT 30004KT
 
ENHD - Haugesund
Updated: 25/06/2018 07:20
Mist, overcast
Mist, overcast
 Wind from NNW
Wind: NNW 19 km/h
Temperature: 11°C
Dew Point: 11°C
Humidity: 100%
Barometer: 1022 hPa
Summary: Mist
Clouds: Overcast
Visibility: 2 km
2018/06/25 05:20 ENHD 250520Z 34010KT 1500 BR OVC001 11/11 Q1022
ENCN - Kristiansand
Updated: 25/06/2018 07:20
Clear
Clear
 Wind from NNE
Wind: NNE 6 km/h
Temperature: 19°C
Dew Point: 11°C
Humidity: 60%
Barometer: 1017 hPa
Summary: Clear
Visibility: greater than 10 km
2018/06/25 05:20 ENCN 250520Z 03003KT 330V100 CAVOK 19/11 Q1017
 
ENBO - Bodø
Updated: 25/06/2018 07:20
Light drizzle, mostly cloudy
Light drizzle, mostly cloudy
 Wind from SW
Wind: SW 33 km/h
Temperature: 10°C
Wind Chill: 6°C
Dew Point: 10°C
Humidity: 100%
Barometer: 1012 hPa
Summary: Light drizzle
Clouds: Mostly cloudy
Visibility: 10 km
2018/06/25 05:20 ENBO 250520Z 23018KT 9999 -DZ FEW004 SCT006 BKN015 10/10 Q1012 TEMPO 3000 DZ BR SCT003 BKN006
ENKR - Kirkenes
Updated: 25/06/2018 07:20
Clear
Clear
 Wind from NNW
Wind: NNW 6 km/h
Temperature: 12°C
Dew Point: 4°C
Humidity: 58%
Barometer: 1011 hPa
Summary: Clear
Visibility: greater than 10 km
2018/06/25 05:20 ENKR 250520Z 34003KT CAVOK 12/04 Q1011 RMK WIND 731FT 12003KT
 
ENVA - Trondheim
Updated: 25/06/2018 07:20
Overcast
Overcast
 Wind from varies
Wind: varies 2 km/h
Temperature: 12°C
Dew Point: 11°C
Humidity: 94%
Barometer: 1018 hPa
Clouds: Overcast
Visibility: 10 km
2018/06/25 05:20 ENVA 250520Z VRB01KT 9999 FEW005 BKN015 OVC020 12/11 Q1018 NOSIG RMK WIND 670FT 27004KT
ENGM - Oslo
Updated: 25/06/2018 07:20
Clear
Clear
 Wind from N
Wind: N 6 km/h
Temperature: 18°C
Dew Point: 9°C
Humidity: 56%
Barometer: 1016 hPa
Summary: Clear
Visibility: greater than 10 km
2018/06/25 05:20 ENGM 250520Z 36003KT 280V080 CAVOK 18/09 Q1016 NOSIG